Time;durP1;ratioP1;P1;durP2;ratioP2;P2;SDS_P1;SDS_P2;PMS_P1;PMS_P2;Temp;Humidity;BMP_temperature;BMP_pressure;BME280_temperature;BME280_humidity;BME280_pressure;Samples;Min_cycle;Max_cycle;Signal;HPM_P1;HPM_P2
2021/12/17 00:04:58;;;;;;;34.77;11.27;;;5.10;97.30;;;;;;5038236;28;20451;-78
2021/12/17 00:07:26;;;;;;;45.00;13.90;;;5.00;97.30;;;;;;5020641;28;20530;-79
2021/12/17 00:09:54;;;;;;;47.87;15.00;;;4.90;97.30;;;;;;5017999;28;20438;-82
2021/12/17 00:12:22;;;;;;;44.17;14.77;;;4.90;97.30;;;;;;5040631;28;20418;-82
2021/12/17 00:14:50;;;;;;;48.40;16.03;;;4.90;97.30;;;;;;5022199;28;20411;-82
2021/12/17 00:17:23;;;;;;;49.10;12.87;;;4.90;97.30;;;;;;5022420;28;20449;-82
2021/12/17 00:50:05;;;;;;;58.30;15.20;;;4.60;97.30;;;;;;5040944;28;20421;-82
2021/12/17 00:52:34;;;;;;;46.03;14.50;;;4.60;97.30;;;;;;5022742;28;20989;-82
2021/12/17 00:55:00;;;;;;;46.10;14.23;;;4.60;97.30;;;;;;5022493;28;20463;-82
2021/12/17 00:57:30;;;;;;;50.83;15.90;;;4.60;97.30;;;;;;5022446;28;20521;-82
2021/12/17 00:59:57;;;;;;;42.67;13.90;;;4.60;97.30;;;;;;5021755;28;20184;-82
2021/12/17 01:02:30;;;;;;;46.83;15.53;;;4.60;97.30;;;;;;5020792;28;20415;-82
2021/12/17 01:04:59;;;;;;;37.53;13.60;;;4.60;97.30;;;;;;5021398;28;20863;-82
2021/12/17 01:07:28;;;;;;;40.57;13.63;;;4.60;97.30;;;;;;5021590;28;20431;-82
2021/12/17 01:09:54;;;;;;;43.57;14.80;;;4.60;97.30;;;;;;5021572;28;20411;-81
2021/12/17 01:12:22;;;;;;;47.97;15.30;;;4.60;97.30;;;;;;5020852;28;20438;-81
2021/12/17 01:14:48;;;;;;;44.50;14.17;;;4.60;97.30;;;;;;5021391;28;20403;-81
2021/12/17 01:17:17;;;;;;;39.27;13.13;;;4.60;97.30;;;;;;5022551;28;20458;-82
2021/12/17 01:25:02;;;;;;;40.47;15.53;;;4.70;97.30;;;;;;5040608;28;20454;-82
2021/12/17 01:35:44;;;;;;;36.00;11.70;;;4.80;97.30;;;;;;5041845;28;20650;-82
2021/12/17 01:43:42;;;;;;;30.10;10.73;;;4.70;97.30;;;;;;5041947;28;20422;-81
2021/12/17 01:46:10;;;;;;;44.00;12.80;;;4.70;97.30;;;;;;5024543;28;20423;-82
2021/12/17 01:48:55;;;;;;;39.87;12.73;;;4.70;97.30;;;;;;5025811;28;20450;-82
2021/12/17 01:59:20;;;;;;;34.10;11.37;;;4.70;97.30;;;;;;5036418;28;20797;-80
2021/12/17 01:59:49;;;;;;;33.53;11.60;;;4.70;97.30;;;;;;5036102;28;20905;-80
2021/12/17 02:02:15;;;;;;;27.93;12.60;;;4.70;97.30;;;;;;5037383;28;20414;-80
2021/12/17 02:04:41;;;;;;;35.80;13.03;;;4.70;97.30;;;;;;5018250;28;20463;-79
2021/12/17 02:07:07;;;;;;;35.30;11.93;;;4.60;97.30;;;;;;5020223;28;20200;-80
2021/12/17 02:32:02;;;;;;;28.43;10.03;;;4.10;97.30;;;;;;5037928;28;20461;-79
2021/12/17 02:37:13;;;;;;;30.30;10.93;;;4.10;97.30;;;;;;5034381;28;20610;-80
2021/12/17 02:47:36;;;;;;;34.00;9.53;;;3.80;97.30;;;;;;5018437;28;20423;-80
2021/12/17 02:50:03;;;;;;;39.77;11.03;;;3.70;97.30;;;;;;5000193;28;20420;-79
2021/12/17 02:52:30;;;;;;;27.87;10.20;;;3.70;97.30;;;;;;4999391;28;20412;-80
2021/12/17 02:54:57;;;;;;;36.63;12.13;;;3.70;97.30;;;;;;4999777;28;20836;-80
2021/12/17 02:57:24;;;;;;;34.93;13.13;;;3.70;97.30;;;;;;5000007;28;20432;-80
2021/12/17 02:59:51;;;;;;;33.27;11.53;;;3.70;97.30;;;;;;4999730;28;20993;-80
2021/12/17 03:02:18;;;;;;;37.33;11.87;;;3.80;97.30;;;;;;5000312;28;20408;-80
2021/12/17 03:04:44;;;;;;;46.27;11.70;;;3.80;97.30;;;;;;4999542;28;20526;-80
2021/12/17 03:07:13;;;;;;;42.27;11.50;;;3.80;97.30;;;;;;4999053;28;20444;-80
2021/12/17 03:10:03;;;;;;;30.87;10.17;;;3.70;97.30;;;;;;4999114;28;20358;-80
2021/12/17 03:12:37;;;;;;;28.23;9.23;;;3.70;97.30;;;;;;4999953;28;20480;-80
2021/12/17 03:25:54;;;;;;;35.53;11.93;;;3.70;97.30;;;;;;5036865;28;20826;-80
2021/12/17 03:28:20;;;;;;;35.47;12.13;;;3.70;97.30;;;;;;5018450;28;20458;-79
2021/12/17 03:30:46;;;;;;;35.63;11.27;;;3.70;97.30;;;;;;5035663;28;20426;-80
2021/12/17 03:33:11;;;;;;;34.47;9.63;;;3.70;97.30;;;;;;5018532;28;20415;-79
2021/12/17 03:35:37;;;;;;;40.20;10.33;;;3.60;97.30;;;;;;5018397;28;20434;-79
2021/12/17 03:38:04;;;;;;;34.07;10.90;;;3.60;97.30;;;;;;5036727;28;20208;-80
2021/12/17 03:40:33;;;;;;;35.30;10.73;;;3.60;97.30;;;;;;5018178;28;20419;-78
2021/12/17 03:43:11;;;;;;;39.33;11.53;;;3.60;97.30;;;;;;5035511;28;20525;-79
2021/12/17 03:45:37;;;;;;;35.27;10.23;;;3.60;97.30;;;;;;5018281;28;20458;-80
2021/12/17 03:48:03;;;;;;;29.87;10.33;;;3.60;97.30;;;;;;5017637;28;20439;-79
2021/12/17 03:50:33;;;;;;;34.63;10.40;;;3.50;97.30;;;;;;5035484;28;20426;-80
2021/12/17 03:52:58;;;;;;;32.60;11.10;;;3.50;97.30;;;;;;5017462;28;20415;-79
2021/12/17 03:55:24;;;;;;;30.27;9.47;;;3.40;97.30;;;;;;5017214;28;20471;-80
2021/12/17 03:57:49;;;;;;;34.60;9.90;;;3.40;97.30;;;;;;5017907;28;20202;-80
2021/12/17 04:00:15;;;;;;;29.13;11.27;;;3.40;97.30;;;;;;5018199;28;20180;-80
2021/12/17 04:02:41;;;;;;;29.53;9.60;;;3.50;97.30;;;;;;5017452;28;20208;-79
2021/12/17 04:05:07;;;;;;;27.90;8.80;;;3.50;97.30;;;;;;5035207;28;20466;-80
2021/12/17 04:07:33;;;;;;;33.40;12.13;;;3.50;97.30;;;;;;5017518;28;20254;-80
2021/12/17 04:09:58;;;;;;;34.97;10.60;;;3.50;97.30;;;;;;5017338;28;20183;-79
2021/12/17 04:12:38;;;;;;;35.43;11.23;;;3.60;97.30;;;;;;5013726;28;20423;-77
2021/12/17 04:15:05;;;;;;;40.73;11.60;;;3.60;97.30;;;;;;5030305;28;20160;-77
2021/12/17 04:17:39;;;;;;;44.23;12.43;;;3.70;97.30;;;;;;5012461;28;20462;-77
2021/12/17 04:20:06;;;;;;;40.07;12.00;;;3.80;97.30;;;;;;5012809;28;20501;-78
2021/12/17 04:22:31;;;;;;;40.60;12.00;;;3.90;97.30;;;;;;5012993;28;20415;-77
2021/12/17 04:24:57;;;;;;;42.53;12.87;;;4.00;97.30;;;;;;5012817;28;20474;-77
2021/12/17 04:27:23;;;;;;;44.63;14.60;;;4.10;97.30;;;;;;5012680;28;20282;-77
2021/12/17 04:29:48;;;;;;;39.70;12.50;;;4.10;97.30;;;;;;5015383;28;20176;-80
2021/12/17 04:32:14;;;;;;;42.00;14.83;;;4.20;97.30;;;;;;5017925;28;20485;-80
2021/12/17 04:34:39;;;;;;;45.57;14.53;;;4.20;97.30;;;;;;5018130;28;20191;-80
2021/12/17 04:37:05;;;;;;;50.87;14.73;;;4.30;97.30;;;;;;5018145;28;20659;-79
2021/12/17 04:39:31;;;;;;;43.17;12.63;;;4.30;97.30;;;;;;5018497;28;20172;-79
2021/12/17 04:42:12;;;;;;;39.17;12.50;;;4.30;97.30;;;;;;5019112;28;20259;-79
2021/12/17 04:44:42;;;;;;;47.17;12.87;;;4.40;97.30;;;;;;5019186;28;20295;-80
2021/12/17 04:57:46;;;;;;;50.43;13.93;;;4.50;97.30;;;;;;5030674;28;20978;-78
2021/12/17 05:00:24;;;;;;;45.07;14.57;;;4.60;97.30;;;;;;5030576;28;20940;-77
2021/12/17 05:02:54;;;;;;;44.67;16.03;;;4.60;97.30;;;;;;5012936;28;20574;-77
2021/12/17 05:05:25;;;;;;;55.13;15.70;;;4.70;97.30;;;;;;5012511;28;20460;-78
2021/12/17 05:07:55;;;;;;;41.63;14.00;;;4.70;97.30;;;;;;5020644;28;20500;-77
2021/12/17 05:18:19;;;;;;;40.77;12.40;;;4.70;97.30;;;;;;5032985;28;20831;-78
2021/12/17 05:20:51;;;;;;;39.00;11.97;;;4.80;97.30;;;;;;5010201;28;20840;-78
2021/12/17 05:23:24;;;;;;;38.63;12.27;;;4.80;97.30;;;;;;5002302;28;20424;-78
2021/12/17 05:25:51;;;;;;;44.43;13.13;;;4.80;97.30;;;;;;5009091;28;20995;-78
2021/12/17 05:28:17;;;;;;;40.00;13.57;;;4.80;97.30;;;;;;5021302;28;20451;-78
2021/12/17 05:30:47;;;;;;;45.27;14.80;;;4.80;97.30;;;;;;5026408;28;20426;-80
2021/12/17 05:33:18;;;;;;;39.47;13.43;;;4.80;97.30;;;;;;5025672;28;20518;-80
2021/12/17 05:35:45;;;;;;;43.40;12.60;;;4.80;97.30;;;;;;5023045;28;20460;-80
2021/12/17 05:38:12;;;;;;;47.93;13.03;;;4.80;97.30;;;;;;5023824;28;20570;-79
2021/12/17 05:40:39;;;;;;;35.80;11.13;;;4.70;97.30;;;;;;5018421;28;20557;-78
2021/12/17 05:43:06;;;;;;;38.83;13.00;;;4.70;97.30;;;;;;5019504;28;20959;-78
2021/12/17 05:45:47;;;;;;;38.13;13.50;;;4.60;97.30;;;;;;5016707;28;20464;-78
2021/12/17 05:48:15;;;;;;;43.40;12.37;;;4.60;97.30;;;;;;5015624;28;20443;-78
2021/12/17 05:50:42;;;;;;;40.63;11.90;;;4.50;97.30;;;;;;5016055;28;21197;-78
2021/12/17 05:53:08;;;;;;;37.30;12.30;;;4.50;97.30;;;;;;5016697;28;20925;-78
2021/12/17 05:55:34;;;;;;;44.20;13.37;;;4.50;97.30;;;;;;5015901;28;20475;-78
2021/12/17 05:58:01;;;;;;;47.90;11.77;;;4.50;97.30;;;;;;5015847;28;20470;-78
2021/12/17 06:00:29;;;;;;;40.90;15.07;;;4.50;97.30;;;;;;5017440;28;20180;-79
2021/12/17 06:02:56;;;;;;;47.73;12.30;;;4.50;97.30;;;;;;5018346;28;20446;-78
2021/12/17 06:05:24;;;;;;;36.77;12.93;;;4.50;97.30;;;;;;5019305;28;20470;-78
2021/12/17 06:07:50;;;;;;;45.27;13.80;;;4.50;97.30;;;;;;5018022;28;20443;-78
2021/12/17 06:10:16;;;;;;;40.40;12.47;;;4.40;97.30;;;;;;5017399;28;20793;-78
2021/12/17 06:12:45;;;;;;;37.13;12.77;;;4.50;97.30;;;;;;5036358;28;20506;-78
2021/12/17 06:15:14;;;;;;;34.77;10.50;;;4.40;97.30;;;;;;5018869;28;20185;-78
2021/12/17 06:17:41;;;;;;;51.07;13.33;;;4.50;97.30;;;;;;5016938;28;20469;-78
2021/12/17 06:20:09;;;;;;;39.87;12.30;;;4.40;97.30;;;;;;5017220;28;20423;-78
2021/12/17 06:22:35;;;;;;;46.87;13.97;;;4.50;97.30;;;;;;5016709;28;20893;-78
2021/12/17 06:25:03;;;;;;;41.60;12.80;;;4.40;97.30;;;;;;5017452;28;20996;-78
2021/12/17 06:27:28;;;;;;;43.50;13.90;;;4.50;97.30;;;;;;5017002;28;20431;-76
2021/12/17 06:29:55;;;;;;;36.60;12.73;;;4.50;97.30;;;;;;5032478;28;20856;-78
2021/12/17 06:32:21;;;;;;;40.30;11.60;;;4.50;97.30;;;;;;5015965;28;20238;-78
2021/12/17 06:34:48;;;;;;;45.67;12.40;;;4.50;97.30;;;;;;5016280;28;20441;-78
2021/12/17 06:37:17;;;;;;;51.30;13.27;;;4.40;97.30;;;;;;5015615;28;20971;-77
2021/12/17 06:39:42;;;;;;;40.20;12.17;;;4.40;97.30;;;;;;5015493;28;20474;-78
2021/12/17 06:42:09;;;;;;;36.20;11.07;;;4.40;97.30;;;;;;5033612;28;20502;-78
2021/12/17 06:44:34;;;;;;;36.63;12.77;;;4.40;97.30;;;;;;5015206;28;20271;-78
2021/12/17 06:49:42;;;;;;;40.50;12.90;;;4.30;97.30;;;;;;5014549;28;20173;-78
2021/12/17 07:06:17;;;;;;;33.50;11.33;;;4.30;97.30;;;;;;4970595;28;20428;-78
2021/12/17 07:21:36;;;;;;;38.23;12.10;;;4.00;97.30;;;;;;5031254;28;20549;-77
2021/12/17 07:34:46;;;;;;;37.03;12.07;;;3.80;97.30;;;;;;5012744;28;20399;-78
2021/12/17 07:39:38;;;;;;;32.97;11.90;;;3.70;97.30;;;;;;5012279;28;20419;-77
2021/12/17 07:42:04;;;;;;;32.90;12.90;;;3.60;97.30;;;;;;4994147;28;20431;-78
2021/12/17 07:44:29;;;;;;;35.37;11.70;;;3.60;97.30;;;;;;5012083;28;20210;-78
2021/12/17 07:46:55;;;;;;;33.87;11.77;;;3.60;97.30;;;;;;4994468;28;20458;-78
2021/12/17 07:49:21;;;;;;;34.27;11.70;;;3.60;97.30;;;;;;5011908;28;20597;-78
2021/12/17 07:51:46;;;;;;;38.73;14.37;;;3.70;97.30;;;;;;4994368;28;20698;-78
2021/12/17 07:54:12;;;;;;;35.00;11.60;;;3.60;97.30;;;;;;5000540;28;20721;-78
2021/12/17 07:56:38;;;;;;;38.83;11.63;;;3.50;97.30;;;;;;5014796;28;20203;-77
2021/12/17 07:59:09;;;;;;;35.30;11.90;;;3.50;97.30;;;;;;5016659;28;20425;-78
2021/12/17 08:01:36;;;;;;;36.67;12.00;;;3.50;97.30;;;;;;5033725;28;20446;-79
2021/12/17 08:04:03;;;;;;;35.90;12.60;;;3.50;97.30;;;;;;5015913;28;21035;-78
2021/12/17 08:06:29;;;;;;;37.40;13.80;;;3.60;97.30;;;;;;5016928;28;20858;-78
2021/12/17 08:08:54;;;;;;;35.43;12.03;;;3.60;97.30;;;;;;5016999;28;20463;-78
2021/12/17 08:11:22;;;;;;;41.53;12.50;;;3.70;97.30;;;;;;5016812;28;20438;-78
2021/12/17 08:13:48;;;;;;;41.47;12.07;;;3.60;97.30;;;;;;5017174;28;20179;-78
2021/12/17 08:16:28;;;;;;;38.13;10.97;;;3.70;97.30;;;;;;5015682;28;20916;-77
2021/12/17 08:25:08;;;;;;;37.20;11.73;;;3.80;97.30;;;;;;4923060;29;20494;-78
2021/12/17 08:27:48;;;;;;;35.80;11.90;;;3.90;97.30;;;;;;4932276;29;20450;-78
2021/12/17 08:32:45;;;;;;;35.53;11.50;;;3.80;97.30;;;;;;5028006;28;20832;-78
2021/12/17 08:35:11;;;;;;;43.57;14.00;;;3.80;97.30;;;;;;5015971;28;20510;-78
2021/12/17 08:37:37;;;;;;;38.27;13.63;;;3.70;97.30;;;;;;5013497;28;21011;-78
2021/12/17 08:40:04;;;;;;;38.73;13.73;;;3.80;97.30;;;;;;5011779;28;20423;-78
2021/12/17 08:42:30;;;;;;;34.17;12.00;;;3.80;97.30;;;;;;5016236;28;20418;-78
2021/12/17 08:44:56;;;;;;;37.53;12.23;;;3.90;97.30;;;;;;5018880;28;20839;-78
2021/12/17 08:47:21;;;;;;;42.70;12.17;;;3.90;97.30;;;;;;5016525;28;20680;-78
2021/12/17 08:49:48;;;;;;;41.17;11.40;;;4.00;97.30;;;;;;5016296;28;20210;-77
2021/12/17 08:52:14;;;;;;;39.10;12.90;;;4.00;97.30;;;;;;5013378;28;20279;-78
2021/12/17 08:54:40;;;;;;;31.87;11.43;;;4.00;97.30;;;;;;5018938;28;20497;-78
2021/12/17 08:57:06;;;;;;;39.13;13.30;;;4.10;97.30;;;;;;5010603;28;20193;-78
2021/12/17 08:59:32;;;;;;;38.80;12.00;;;4.10;97.30;;;;;;5018461;28;20192;-78
2021/12/17 09:01:57;;;;;;;38.53;11.87;;;4.20;97.30;;;;;;5010882;28;20547;-78
2021/12/17 09:04:27;;;;;;;33.93;11.87;;;4.20;97.30;;;;;;5016608;28;20204;-78
2021/12/17 09:06:53;;;;;;;26.53;10.70;;;4.30;97.30;;;;;;5013841;28;20206;-77
2021/12/17 09:09:21;;;;;;;35.33;11.03;;;4.30;97.30;;;;;;5017219;28;20428;-78
2021/12/17 09:11:46;;;;;;;42.57;12.30;;;4.30;97.30;;;;;;5017699;28;20967;-78
2021/12/17 09:14:12;;;;;;;38.70;12.33;;;4.40;97.30;;;;;;5017329;28;20419;-78
2021/12/17 09:16:38;;;;;;;38.67;13.00;;;4.40;97.30;;;;;;5017243;28;20717;-78
2021/12/17 09:19:07;;;;;;;33.87;13.33;;;4.40;97.30;;;;;;5017071;28;20544;-77
2021/12/17 09:21:32;;;;;;;34.43;11.73;;;4.50;97.30;;;;;;5017692;28;20423;-78
2021/12/17 09:23:58;;;;;;;44.37;13.23;;;4.50;97.30;;;;;;5016825;28;20609;-77
2021/12/17 09:26:24;;;;;;;29.80;11.57;;;4.50;97.30;;;;;;5015393;28;20373;-77
2021/12/17 09:28:50;;;;;;;46.77;11.93;;;4.60;97.30;;;;;;5015556;28;20180;-78
2021/12/17 09:31:17;;;;;;;37.40;13.23;;;4.70;97.30;;;;;;5032921;28;20546;-78
2021/12/17 09:33:45;;;;;;;34.70;11.47;;;4.80;97.30;;;;;;5014725;28;20469;-78
2021/12/17 09:36:11;;;;;;;38.37;12.87;;;5.00;97.30;;;;;;5027969;28;20816;-77
2021/12/17 09:38:37;;;;;;;35.37;11.57;;;5.00;97.30;;;;;;5007820;28;20415;-78
2021/12/17 09:41:04;;;;;;;36.33;11.60;;;5.00;97.30;;;;;;5013245;28;20493;-78
2021/12/17 09:43:30;;;;;;;36.87;11.83;;;5.10;97.30;;;;;;5002396;28;20173;-77
2021/12/17 09:45:57;;;;;;;31.13;12.00;;;5.20;97.30;;;;;;5027616;28;20443;-78
2021/12/17 09:48:24;;;;;;;29.07;10.97;;;5.10;97.30;;;;;;5034060;28;20192;-78
2021/12/17 09:50:52;;;;;;;29.00;11.00;;;5.10;97.30;;;;;;5025971;28;20404;-78
2021/12/17 09:53:17;;;;;;;31.87;10.40;;;5.10;97.30;;;;;;5032890;28;20430;-78
2021/12/17 09:55:43;;;;;;;28.90;9.63;;;4.90;97.30;;;;;;5021600;28;21059;-78
2021/12/17 09:58:09;;;;;;;29.77;12.33;;;4.90;97.30;;;;;;5014798;28;20197;-77
2021/12/17 10:00:34;;;;;;;32.30;10.40;;;4.90;97.30;;;;;;5025408;28;20196;-78
2021/12/17 10:03:00;;;;;;;32.90;11.33;;;5.00;97.30;;;;;;5026282;28;20212;-78
2021/12/17 10:05:30;;;;;;;27.03;10.07;;;5.10;97.30;;;;;;5015355;28;20577;-78
2021/12/17 10:07:59;;;;;;;35.63;11.17;;;5.20;97.30;;;;;;5032714;28;20236;-78
2021/12/17 10:11:01;;;;;;;35.90;10.50;;;5.30;97.30;;;;;;5015225;28;20483;-78
2021/12/17 10:13:33;;;;;;;31.30;10.10;;;5.40;97.30;;;;;;5005276;28;20415;-78
2021/12/17 10:16:06;;;;;;;30.03;11.07;;;5.40;97.30;;;;;;5009334;28;20612;-78
2021/12/17 10:18:40;;;;;;;34.63;11.33;;;5.40;97.30;;;;;;5022783;28;20694;-78
2021/12/17 10:21:08;;;;;;;28.10;10.30;;;5.60;97.30;;;;;;5016275;28;20926;-78
2021/12/17 10:23:35;;;;;;;29.10;11.23;;;5.60;97.30;;;;;;5018993;28;20518;-78
2021/12/17 10:26:03;;;;;;;36.33;10.80;;;5.60;97.30;;;;;;5005783;28;20464;-78
2021/12/17 10:28:30;;;;;;;35.70;13.07;;;5.70;97.30;;;;;;5016837;28;20442;-77
2021/12/17 10:30:57;;;;;;;40.13;11.20;;;5.80;97.30;;;;;;5034379;28;20411;-78
2021/12/17 10:33:27;;;;;;;33.90;11.07;;;5.80;97.30;;;;;;5034544;28;20422;-78
2021/12/17 10:35:56;;;;;;;32.57;11.97;;;5.90;97.30;;;;;;5024025;28;20427;-78
2021/12/17 10:38:25;;;;;;;25.03;10.80;;;5.80;97.30;;;;;;5006658;28;20984;-78
2021/12/17 10:41:06;;;;;;;28.20;11.20;;;5.70;97.30;;;;;;5025163;28;20426;-78
2021/12/17 10:43:39;;;;;;;31.37;11.90;;;5.70;97.30;;;;;;4995731;28;20527;-78
2021/12/17 10:46:22;;;;;;;33.23;10.60;;;5.70;97.30;;;;;;5001964;28;20416;-78
2021/12/17 10:48:53;;;;;;;32.67;10.80;;;5.70;97.30;;;;;;5013892;28;20411;-78
2021/12/17 10:54:04;;;;;;;32.10;13.60;;;5.60;97.30;;;;;;5027569;28;20520;-78
2021/12/17 10:56:32;;;;;;;28.30;10.40;;;5.70;97.30;;;;;;5033065;28;20439;-78
2021/12/17 10:59:09;;;;;;;29.07;11.23;;;5.70;97.30;;;;;;5029763;28;20415;-78
2021/12/17 11:01:41;;;;;;;26.93;9.87;;;5.70;97.30;;;;;;5023705;28;20414;-78
2021/12/17 11:04:26;;;;;;;32.20;9.80;;;5.70;97.30;;;;;;5015027;28;20460;-77
2021/12/17 11:07:12;;;;;;;29.67;11.77;;;5.60;97.30;;;;;;5026983;28;20461;-77
2021/12/17 11:09:39;;;;;;;37.20;10.90;;;5.60;97.30;;;;;;5033600;28;20494;-78
2021/12/17 11:12:13;;;;;;;34.57;12.97;;;5.60;97.30;;;;;;5024154;28;20478;-78
2021/12/17 11:14:40;;;;;;;38.87;12.07;;;5.60;97.30;;;;;;5015639;28;20465;-78
2021/12/17 11:17:08;;;;;;;30.63;11.90;;;5.70;97.30;;;;;;5014693;28;20461;-78
2021/12/17 11:19:35;;;;;;;31.00;12.00;;;5.70;97.30;;;;;;5014822;28;20419;-78
2021/12/17 11:22:00;;;;;;;34.83;12.77;;;5.80;97.30;;;;;;5017207;28;20419;-78
2021/12/17 11:24:26;;;;;;;30.20;10.63;;;5.80;97.30;;;;;;5015349;28;20983;-78
2021/12/17 11:26:52;;;;;;;30.70;11.07;;;5.90;97.30;;;;;;5026594;28;20192;-78
2021/12/17 11:29:18;;;;;;;33.70;12.10;;;5.90;97.30;;;;;;5003373;28;20240;-78
2021/12/17 11:31:47;;;;;;;33.77;10.47;;;6.00;97.30;;;;;;5019863;28;20470;-78
2021/12/17 11:34:13;;;;;;;32.90;11.43;;;6.00;97.30;;;;;;5016035;28;20186;-78
2021/12/17 11:36:38;;;;;;;33.97;11.00;;;6.00;97.30;;;;;;5015009;28;20438;-78
2021/12/17 11:39:21;;;;;;;26.50;9.90;;;6.00;97.30;;;;;;5015703;28;21055;-78
2021/12/17 11:42:24;;;;;;;31.60;9.97;;;6.00;97.30;;;;;;5018323;28;20177;-78
2021/12/17 11:45:22;;;;;;;29.03;10.93;;;6.10;97.30;;;;;;5015786;28;20600;-78
2021/12/17 11:47:37;;;;;;;33.37;10.10;;;6.10;97.30;;;;;;5033828;28;20442;-78
2021/12/17 11:50:06;;;;;;;31.30;10.73;;;6.10;97.30;;;;;;5016124;28;20435;-78
2021/12/17 11:52:35;;;;;;;32.93;10.23;;;6.10;97.30;;;;;;5022875;28;20196;-78
2021/12/17 11:55:23;;;;;;;27.53;9.63;;;6.20;97.30;;;;;;5010447;28;20868;-78
2021/12/17 11:57:50;;;;;;;30.00;9.87;;;6.20;97.30;;;;;;5019625;28;20435;-78
2021/12/17 12:00:23;;;;;;;31.20;9.30;;;6.30;97.30;;;;;;5014871;28;20419;-78
2021/12/17 12:02:56;;;;;;;25.00;9.97;;;6.30;97.30;;;;;;5017910;28;20477;-78
2021/12/17 12:05:35;;;;;;;25.33;9.40;;;6.30;97.30;;;;;;5014970;28;20458;-78
2021/12/17 12:08:28;;;;;;;25.90;10.00;;;6.40;97.30;;;;;;5015039;28;20439;-78
2021/12/17 12:11:04;;;;;;;31.30;10.20;;;6.40;97.30;;;;;;5015480;28;20786;-78
2021/12/17 12:13:38;;;;;;;28.50;10.50;;;6.40;97.30;;;;;;5016311;28;20406;-78
2021/12/17 12:16:06;;;;;;;30.70;10.20;;;6.50;97.30;;;;;;5015727;28;20486;-78
2021/12/17 12:19:07;;;;;;;34.33;12.40;;;6.50;97.30;;;;;;5030458;28;20420;-78
2021/12/17 12:21:38;;;;;;;29.40;11.03;;;6.50;97.30;;;;;;4999637;28;20672;-78
2021/12/17 12:24:12;;;;;;;29.80;10.23;;;6.50;97.30;;;;;;5006578;28;20462;-78
2021/12/17 12:26:51;;;;;;;29.93;10.30;;;6.50;97.30;;;;;;5016294;28;20444;-79
2021/12/17 12:29:24;;;;;;;25.00;8.40;;;6.60;97.30;;;;;;5033768;28;20415;-83
2021/12/17 12:32:20;;;;;;;32.10;10.63;;;6.60;97.30;;;;;;5013846;28;20419;-87
2021/12/17 12:34:45;;;;;;;21.97;8.13;;;6.70;97.30;;;;;;5013686;28;20434;-89
2021/12/17 12:37:18;;;;;;;25.17;10.27;;;6.70;97.30;;;;;;5014376;28;20435;-86
2021/12/17 12:39:48;;;;;;;20.97;7.60;;;6.70;97.30;;;;;;5014212;28;20176;-87
2021/12/17 12:42:46;;;;;;;21.00;7.47;;;6.70;97.30;;;;;;5017138;28;20431;-80
2021/12/17 12:45:13;;;;;;;18.93;8.10;;;6.70;97.30;;;;;;5015960;28;20529;-80
2021/12/17 12:47:43;;;;;;;21.30;9.00;;;6.70;97.30;;;;;;5014163;28;20435;-80
2021/12/17 12:50:18;;;;;;;20.80;7.63;;;6.70;97.30;;;;;;5015623;28;20427;-80
2021/12/17 12:52:59;;;;;;;20.53;7.40;;;6.70;97.30;;;;;;5015127;28;20422;-79
2021/12/17 12:55:43;;;;;;;21.67;8.87;;;6.70;97.30;;;;;;5035318;28;20497;-79
2021/12/17 12:58:14;;;;;;;25.63;8.40;;;6.60;97.30;;;;;;5018841;28;20962;-80
2021/12/17 13:00:44;;;;;;;28.90;9.30;;;6.60;97.30;;;;;;5001259;28;20514;-80
2021/12/17 13:03:16;;;;;;;21.53;8.90;;;6.70;97.30;;;;;;4999089;28;20419;-80
2021/12/17 13:05:43;;;;;;;23.90;11.00;;;6.60;97.30;;;;;;4999447;28;20778;-80
2021/12/17 13:08:12;;;;;;;26.10;9.57;;;6.60;97.30;;;;;;4999887;28;20435;-80
2021/12/17 13:10:50;;;;;;;20.07;9.00;;;6.60;97.30;;;;;;5000189;28;20515;-80
2021/12/17 13:13:50;;;;;;;26.20;7.47;;;6.60;97.30;;;;;;5000634;28;20842;-80
2021/12/17 13:16:24;;;;;;;25.50;8.77;;;6.60;97.30;;;;;;5034163;28;20501;-80
2021/12/17 13:24:17;;;;;;;23.40;9.03;;;6.60;97.30;;;;;;5038985;28;20488;-80
2021/12/17 13:26:47;;;;;;;27.40;8.40;;;6.60;97.30;;;;;;5037065;28;20457;-80
2021/12/17 13:29:18;;;;;;;21.77;9.67;;;6.60;97.30;;;;;;5041277;28;20556;-80
2021/12/17 13:31:46;;;;;;;22.37;9.53;;;6.60;97.30;;;;;;5041205;28;20427;-80
2021/12/17 13:34:37;;;;;;;25.23;8.30;;;6.60;97.30;;;;;;5041791;28;20450;-80
2021/12/17 13:37:14;;;;;;;19.97;7.43;;;6.60;97.30;;;;;;5041028;28;20500;-80
2021/12/17 13:39:51;;;;;;;19.80;7.50;;;6.60;97.30;;;;;;5041033;28;20504;-79
2021/12/17 13:42:19;;;;;;;33.57;10.23;;;6.60;97.30;;;;;;5041795;28;20403;-79
2021/12/17 13:44:55;;;;;;;25.97;8.73;;;6.60;97.30;;;;;;5041225;28;20455;-80
2021/12/17 13:47:25;;;;;;;23.50;8.77;;;6.60;97.30;;;;;;5041833;28;20434;-80
2021/12/17 13:49:58;;;;;;;18.23;7.73;;;6.60;97.30;;;;;;5036287;28;20403;-80
2021/12/17 13:52:26;;;;;;;19.70;7.57;;;6.60;97.30;;;;;;5024417;28;20468;-80
2021/12/17 13:54:53;;;;;;;24.27;9.17;;;6.60;97.30;;;;;;5024790;28;20459;-80
2021/12/17 13:57:21;;;;;;;21.50;8.70;;;6.60;97.30;;;;;;5024534;28;20438;-80
2021/12/17 13:59:48;;;;;;;21.70;8.27;;;6.60;97.30;;;;;;5041249;28;20404;-80
2021/12/17 14:02:18;;;;;;;15.60;6.30;;;6.60;97.30;;;;;;5022601;28;20419;-80
2021/12/17 14:05:00;;;;;;;17.73;6.63;;;6.60;97.30;;;;;;5023621;28;20465;-80
2021/12/17 14:07:30;;;;;;;19.47;8.30;;;6.60;97.30;;;;;;5023789;28;20454;-80
2021/12/17 14:10:03;;;;;;;23.23;7.40;;;6.60;97.30;;;;;;5023260;28;20400;-80
2021/12/17 14:12:32;;;;;;;17.37;7.80;;;6.60;97.30;;;;;;5022136;28;20415;-80
2021/12/17 14:15:06;;;;;;;19.43;6.17;;;6.60;97.30;;;;;;5023875;28;20446;-80
2021/12/17 14:17:33;;;;;;;21.17;6.53;;;6.60;97.30;;;;;;5025148;28;20439;-79
2021/12/17 14:20:09;;;;;;;11.87;5.50;;;6.60;97.30;;;;;;5025369;28;20423;-80
2021/12/17 14:22:38;;;;;;;14.20;4.40;;;6.50;97.30;;;;;;5024622;28;20407;-79
2021/12/17 14:25:25;;;;;;;9.53;4.30;;;6.50;97.30;;;;;;5040831;28;20917;-80
2021/12/17 14:27:52;;;;;;;8.27;4.20;;;6.50;97.30;;;;;;5041065;28;20537;-80
2021/12/17 14:30:28;;;;;;;15.33;4.97;;;6.50;97.30;;;;;;5040880;28;20411;-80
2021/12/17 14:32:54;;;;;;;9.50;4.03;;;6.50;97.30;;;;;;5040809;28;20422;-80
2021/12/17 14:35:48;;;;;;;8.33;4.23;;;6.50;97.30;;;;;;5040697;28;20844;-79
2021/12/17 14:38:14;;;;;;;5.40;3.73;;;6.50;97.30;;;;;;5040705;28;20495;-80
2021/12/17 14:40:46;;;;;;;9.37;4.03;;;6.50;97.30;;;;;;5041439;28;20423;-80
2021/12/17 14:43:39;;;;;;;8.00;4.33;;;6.40;97.30;;;;;;5040886;28;20408;-80
2021/12/17 14:46:19;;;;;;;8.10;5.13;;;6.40;97.30;;;;;;5043299;28;20457;-80
2021/12/17 14:49:05;;;;;;;10.33;4.97;;;6.40;97.30;;;;;;5041546;28;20842;-80
2021/12/17 15:05:12;;;;;;;8.80;4.10;;;6.40;97.30;;;;;;5061136;28;20865;-80
2021/12/17 15:07:38;;;;;;;7.83;4.83;;;6.40;97.30;;;;;;5024462;28;20507;-80
2021/12/17 15:10:07;;;;;;;8.27;4.87;;;6.40;97.30;;;;;;5016705;28;20440;-80
2021/12/17 15:15:02;;;;;;;13.80;3.87;;;6.40;97.30;;;;;;5061309;28;20523;-79
2021/12/17 15:17:28;;;;;;;10.13;4.63;;;6.40;97.30;;;;;;5038365;28;20445;-80
2021/12/17 15:19:54;;;;;;;6.70;3.87;;;6.40;97.30;;;;;;5034534;28;20492;-79
2021/12/17 15:22:19;;;;;;;11.77;4.40;;;6.40;97.30;;;;;;5032172;28;20552;-80
2021/12/17 15:24:45;;;;;;;13.20;6.07;;;6.40;97.30;;;;;;5023550;28;20486;-79
2021/12/17 15:27:13;;;;;;;9.60;4.37;;;6.40;97.30;;;;;;5038404;28;20196;-79
2021/12/17 15:29:39;;;;;;;11.03;4.93;;;6.40;97.30;;;;;;5035972;28;20188;-80
2021/12/17 15:32:05;;;;;;;9.40;4.07;;;6.40;97.30;;;;;;5023612;28;20434;-80
2021/12/17 15:34:31;;;;;;;13.63;8.10;;;6.40;97.30;;;;;;5024008;28;20415;-79
2021/12/17 15:36:58;;;;;;;11.50;6.67;;;6.40;97.30;;;;;;5023294;28;20514;-80
2021/12/17 15:39:26;;;;;;;9.53;4.90;;;6.40;97.30;;;;;;5019413;28;20188;-82
2021/12/17 15:41:53;;;;;;;7.73;3.77;;;6.40;97.30;;;;;;5019394;28;20494;-82
2021/12/17 15:44:19;;;;;;;11.93;4.93;;;6.30;97.30;;;;;;5016282;28;20464;-82
2021/12/17 15:46:45;;;;;;;18.20;8.60;;;6.40;97.30;;;;;;5016380;28;20466;-82
2021/12/17 15:49:10;;;;;;;15.83;7.20;;;6.40;97.30;;;;;;5000301;28;20181;-82
2021/12/17 15:51:36;;;;;;;6.73;4.33;;;6.30;97.30;;;;;;4999353;28;20187;-82
2021/12/17 15:54:08;;;;;;;12.57;7.10;;;6.40;97.30;;;;;;4996865;28;20225;-82
2021/12/17 15:56:34;;;;;;;9.77;5.27;;;6.30;97.30;;;;;;5004346;28;20454;-82
2021/12/17 15:59:03;;;;;;;13.00;9.37;;;6.40;97.30;;;;;;5007935;28;20464;-82
2021/12/17 16:01:28;;;;;;;12.83;6.00;;;6.40;97.30;;;;;;5010375;28;20468;-81
2021/12/17 16:03:55;;;;;;;11.77;7.17;;;6.40;97.30;;;;;;5012959;28;20436;-81
2021/12/17 16:06:21;;;;;;;15.83;8.97;;;6.40;97.30;;;;;;4998187;28;20213;-82
2021/12/17 16:08:52;;;;;;;21.67;17.27;;;6.40;97.30;;;;;;4993769;28;20433;-83
2021/12/17 16:11:43;;;;;;;23.43;15.77;;;6.40;97.30;;;;;;4994678;28;20425;-82